sensor_id;sensor_type;location;lat;lon;timestamp;temperature;humidity
7588;DHT22;3835;48.850;8.938;2023-05-07T00:01:18;12.00;99.90
7588;DHT22;3835;48.850;8.938;2023-05-07T00:03:45;12.00;99.90
7588;DHT22;3835;48.850;8.938;2023-05-07T00:06:14;12.10;99.90
7588;DHT22;3835;48.850;8.938;2023-05-07T00:08:41;12.00;99.90
7588;DHT22;3835;48.850;8.938;2023-05-07T00:11:07;12.00;99.90
7588;DHT22;3835;48.850;8.938;2023-05-07T00:13:34;12.10;99.90
7588;DHT22;3835;48.850;8.938;2023-05-07T00:16:01;12.10;99.90
7588;DHT22;3835;48.850;8.938;2023-05-07T00:18:28;12.00;99.90
7588;DHT22;3835;48.850;8.938;2023-05-07T00:20:55;11.90;99.90
7588;DHT22;3835;48.850;8.938;2023-05-07T00:23:23;11.80;99.90
7588;DHT22;3835;48.850;8.938;2023-05-07T00:25:50;11.70;99.90
7588;DHT22;3835;48.850;8.938;2023-05-07T00:28:17;11.70;99.90
7588;DHT22;3835;48.850;8.938;2023-05-07T00:30:44;11.70;99.90
7588;DHT22;3835;48.850;8.938;2023-05-07T00:33:10;11.70;99.90
7588;DHT22;3835;48.850;8.938;2023-05-07T00:35:37;11.60;99.90
7588;DHT22;3835;48.850;8.938;2023-05-07T00:38:04;11.50;99.90
7588;DHT22;3835;48.850;8.938;2023-05-07T00:40:32;11.50;99.90
7588;DHT22;3835;48.850;8.938;2023-05-07T00:42:59;11.40;99.90
7588;DHT22;3835;48.850;8.938;2023-05-07T00:45:27;11.40;99.90
7588;DHT22;3835;48.850;8.938;2023-05-07T00:47:54;11.40;99.90
7588;DHT22;3835;48.850;8.938;2023-05-07T00:50:21;11.30;99.90
7588;DHT22;3835;48.850;8.938;2023-05-07T00:52:49;11.30;99.90
7588;DHT22;3835;48.850;8.938;2023-05-07T00:55:16;11.30;99.90
7588;DHT22;3835;48.850;8.938;2023-05-07T00:57:45;11.30;99.90
7588;DHT22;3835;48.850;8.938;2023-05-07T01:00:13;11.30;99.90
7588;DHT22;3835;48.850;8.938;2023-05-07T01:02:40;11.40;99.90
7588;DHT22;3835;48.850;8.938;2023-05-07T01:05:09;11.40;99.90
7588;DHT22;3835;48.850;8.938;2023-05-07T01:07:38;11.50;99.90
7588;DHT22;3835;48.850;8.938;2023-05-07T01:10:07;11.40;99.90
7588;DHT22;3835;48.850;8.938;2023-05-07T01:12:35;11.30;99.90
7588;DHT22;3835;48.850;8.938;2023-05-07T01:15:06;11.30;99.90
7588;DHT22;3835;48.850;8.938;2023-05-07T01:17:35;11.40;99.90
7588;DHT22;3835;48.850;8.938;2023-05-07T01:20:02;11.50;99.90
7588;DHT22;3835;48.850;8.938;2023-05-07T01:22:32;11.40;99.90
7588;DHT22;3835;48.850;8.938;2023-05-07T01:25:02;11.30;99.90
7588;DHT22;3835;48.850;8.938;2023-05-07T01:27:30;11.30;99.90
7588;DHT22;3835;48.850;8.938;2023-05-07T01:29:58;11.30;99.90
7588;DHT22;3835;48.850;8.938;2023-05-07T01:32:31;11.20;99.90
7588;DHT22;3835;48.850;8.938;2023-05-07T01:35:00;11.30;99.90
7588;DHT22;3835;48.850;8.938;2023-05-07T01:37:28;11.30;99.90
7588;DHT22;3835;48.850;8.938;2023-05-07T01:39:57;11.40;99.90
7588;DHT22;3835;48.850;8.938;2023-05-07T01:42:25;11.30;99.90
7588;DHT22;3835;48.850;8.938;2023-05-07T01:44:52;11.30;99.90
7588;DHT22;3835;48.850;8.938;2023-05-07T01:47:20;11.30;99.90
7588;DHT22;3835;48.850;8.938;2023-05-07T01:49:48;11.40;99.90
7588;DHT22;3835;48.850;8.938;2023-05-07T01:52:15;11.50;99.90
7588;DHT22;3835;48.850;8.938;2023-05-07T01:54:43;11.60;99.90
7588;DHT22;3835;48.850;8.938;2023-05-07T01:57:11;11.70;99.90
7588;DHT22;3835;48.850;8.938;2023-05-07T01:59:38;11.70;99.90
7588;DHT22;3835;48.850;8.938;2023-05-07T02:02:05;11.70;99.90
7588;DHT22;3835;48.850;8.938;2023-05-07T02:04:32;11.70;99.90
7588;DHT22;3835;48.850;8.938;2023-05-07T02:06:58;11.70;99.90
7588;DHT22;3835;48.850;8.938;2023-05-07T02:09:25;11.70;99.90
7588;DHT22;3835;48.850;8.938;2023-05-07T02:11:52;11.70;99.90
7588;DHT22;3835;48.850;8.938;2023-05-07T02:14:20;11.80;99.90
7588;DHT22;3835;48.850;8.938;2023-05-07T02:16:47;11.90;99.90
7588;DHT22;3835;48.850;8.938;2023-05-07T02:19:13;11.80;99.90
7588;DHT22;3835;48.850;8.938;2023-05-07T02:21:40;11.80;99.90
7588;DHT22;3835;48.850;8.938;2023-05-07T02:24:07;11.80;99.90
7588;DHT22;3835;48.850;8.938;2023-05-07T02:26:34;11.80;99.90
7588;DHT22;3835;48.850;8.938;2023-05-07T02:29:01;11.80;99.90
7588;DHT22;3835;48.850;8.938;2023-05-07T02:31:29;11.70;99.90
7588;DHT22;3835;48.850;8.938;2023-05-07T02:33:56;11.70;99.90
7588;DHT22;3835;48.850;8.938;2023-05-07T02:36:22;11.60;99.90
7588;DHT22;3835;48.850;8.938;2023-05-07T02:38:49;11.60;99.90
7588;DHT22;3835;48.850;8.938;2023-05-07T02:41:16;11.60;99.90
7588;DHT22;3835;48.850;8.938;2023-05-07T02:43:43;11.60;99.90
7588;DHT22;3835;48.850;8.938;2023-05-07T02:46:09;11.60;99.90
7588;DHT22;3835;48.850;8.938;2023-05-07T02:48:38;11.60;99.90
7588;DHT22;3835;48.850;8.938;2023-05-07T02:51:05;11.50;99.90
7588;DHT22;3835;48.850;8.938;2023-05-07T02:53:32;11.50;99.90
7588;DHT22;3835;48.850;8.938;2023-05-07T02:56:00;11.50;99.90
7588;DHT22;3835;48.850;8.938;2023-05-07T02:58:27;11.40;99.90
7588;DHT22;3835;48.850;8.938;2023-05-07T03:00:54;11.30;99.90
7588;DHT22;3835;48.850;8.938;2023-05-07T03:03:21;11.30;99.90
7588;DHT22;3835;48.850;8.938;2023-05-07T03:05:49;11.20;99.90
7588;DHT22;3835;48.850;8.938;2023-05-07T03:08:16;11.10;99.90
7588;DHT22;3835;48.850;8.938;2023-05-07T03:10:43;11.10;99.90
7588;DHT22;3835;48.850;8.938;2023-05-07T03:13:09;11.00;99.90
7588;DHT22;3835;48.850;8.938;2023-05-07T03:15:36;11.10;99.90
7588;DHT22;3835;48.850;8.938;2023-05-07T03:18:03;11.10;99.90
7588;DHT22;3835;48.850;8.938;2023-05-07T03:20:31;11.10;99.90
7588;DHT22;3835;48.850;8.938;2023-05-07T03:22:59;11.10;99.90
7588;DHT22;3835;48.850;8.938;2023-05-07T03:25:26;11.00;99.90
7588;DHT22;3835;48.850;8.938;2023-05-07T03:27:52;11.10;99.90
7588;DHT22;3835;48.850;8.938;2023-05-07T03:30:19;11.10;99.90
7588;DHT22;3835;48.850;8.938;2023-05-07T03:32:46;10.90;99.90
7588;DHT22;3835;48.850;8.938;2023-05-07T03:35:13;10.80;99.90
7588;DHT22;3835;48.850;8.938;2023-05-07T03:37:40;10.70;99.90
7588;DHT22;3835;48.850;8.938;2023-05-07T03:40:09;10.70;99.90
7588;DHT22;3835;48.850;8.938;2023-05-07T03:42:37;10.80;99.90
7588;DHT22;3835;48.850;8.938;2023-05-07T03:45:05;10.90;99.90
7588;DHT22;3835;48.850;8.938;2023-05-07T03:47:32;10.90;99.90
7588;DHT22;3835;48.850;8.938;2023-05-07T03:49:59;11.00;99.90
7588;DHT22;3835;48.850;8.938;2023-05-07T03:52:25;11.10;99.90
7588;DHT22;3835;48.850;8.938;2023-05-07T03:54:52;11.10;99.90
7588;DHT22;3835;48.850;8.938;2023-05-07T03:57:20;11.20;99.90
7588;DHT22;3835;48.850;8.938;2023-05-07T03:59:47;11.20;99.90
7588;DHT22;3835;48.850;8.938;2023-05-07T04:02:14;11.20;99.90
7588;DHT22;3835;48.850;8.938;2023-05-07T04:04:41;11.20;99.90
7588;DHT22;3835;48.850;8.938;2023-05-07T04:07:08;11.10;99.90
7588;DHT22;3835;48.850;8.938;2023-05-07T04:09:35;11.20;99.90
7588;DHT22;3835;48.850;8.938;2023-05-07T04:12:02;11.10;99.90
7588;DHT22;3835;48.850;8.938;2023-05-07T04:14:30;11.10;99.90
7588;DHT22;3835;48.850;8.938;2023-05-07T04:16:57;11.20;99.90
7588;DHT22;3835;48.850;8.938;2023-05-07T04:19:24;11.20;99.90
7588;DHT22;3835;48.850;8.938;2023-05-07T04:21:51;11.30;99.90
7588;DHT22;3835;48.850;8.938;2023-05-07T04:24:18;11.30;99.90
7588;DHT22;3835;48.850;8.938;2023-05-07T04:26:44;11.40;99.90
7588;DHT22;3835;48.850;8.938;2023-05-07T04:29:11;11.40;99.90
7588;DHT22;3835;48.850;8.938;2023-05-07T04:31:39;11.50;99.90
7588;DHT22;3835;48.850;8.938;2023-05-07T04:34:06;11.60;99.90
7588;DHT22;3835;48.850;8.938;2023-05-07T04:36:33;11.60;99.90
7588;DHT22;3835;48.850;8.938;2023-05-07T04:38:59;11.70;99.90
7588;DHT22;3835;48.850;8.938;2023-05-07T04:41:26;11.80;99.90
7588;DHT22;3835;48.850;8.938;2023-05-07T04:43:53;11.90;99.90
7588;DHT22;3835;48.850;8.938;2023-05-07T04:46:20;12.00;99.90
7588;DHT22;3835;48.850;8.938;2023-05-07T04:48:49;12.10;99.90
7588;DHT22;3835;48.850;8.938;2023-05-07T04:51:15;12.10;99.90
7588;DHT22;3835;48.850;8.938;2023-05-07T04:53:42;12.20;99.90
7588;DHT22;3835;48.850;8.938;2023-05-07T04:56:09;12.20;99.90
7588;DHT22;3835;48.850;8.938;2023-05-07T04:58:35;12.30;99.90
7588;DHT22;3835;48.850;8.938;2023-05-07T05:01:02;12.30;99.90
7588;DHT22;3835;48.850;8.938;2023-05-07T05:03:30;12.40;99.90
7588;DHT22;3835;48.850;8.938;2023-05-07T05:05:58;12.40;99.90
7588;DHT22;3835;48.850;8.938;2023-05-07T05:08:25;12.50;99.90
7588;DHT22;3835;48.850;8.938;2023-05-07T05:10:52;12.60;99.90
7588;DHT22;3835;48.850;8.938;2023-05-07T05:13:19;12.70;99.90
7588;DHT22;3835;48.850;8.938;2023-05-07T05:15:46;12.70;99.90
7588;DHT22;3835;48.850;8.938;2023-05-07T05:18:13;12.70;99.90
7588;DHT22;3835;48.850;8.938;2023-05-07T05:20:40;12.70;99.90
7588;DHT22;3835;48.850;8.938;2023-05-07T05:23:08;12.60;99.90
7588;DHT22;3835;48.850;8.938;2023-05-07T05:25:35;12.50;99.90
7588;DHT22;3835;48.850;8.938;2023-05-07T05:28:02;12.90;99.90
7588;DHT22;3835;48.850;8.938;2023-05-07T05:30:29;14.20;99.90
7588;DHT22;3835;48.850;8.938;2023-05-07T05:32:56;15.90;99.90
7588;DHT22;3835;48.850;8.938;2023-05-07T05:35:23;17.80;99.90
7588;DHT22;3835;48.850;8.938;2023-05-07T05:37:49;18.70;99.90
7588;DHT22;3835;48.850;8.938;2023-05-07T05:40:18;18.40;99.90
7588;DHT22;3835;48.850;8.938;2023-05-07T05:42:44;17.80;99.90
7588;DHT22;3835;48.850;8.938;2023-05-07T05:45:11;17.20;99.90
7588;DHT22;3835;48.850;8.938;2023-05-07T05:47:38;16.60;99.90
7588;DHT22;3835;48.850;8.938;2023-05-07T05:50:06;16.00;99.90
7588;DHT22;3835;48.850;8.938;2023-05-07T05:52:33;15.60;99.90
7588;DHT22;3835;48.850;8.938;2023-05-07T05:55:00;15.50;99.90
7588;DHT22;3835;48.850;8.938;2023-05-07T05:57:28;15.50;99.90
7588;DHT22;3835;48.850;8.938;2023-05-07T05:59:55;15.60;99.90
7588;DHT22;3835;48.850;8.938;2023-05-07T06:02:21;15.60;99.90
7588;DHT22;3835;48.850;8.938;2023-05-07T06:04:48;15.70;99.90
7588;DHT22;3835;48.850;8.938;2023-05-07T06:07:15;15.80;99.90
7588;DHT22;3835;48.850;8.938;2023-05-07T06:09:42;16.00;99.90
7588;DHT22;3835;48.850;8.938;2023-05-07T06:12:08;16.20;99.90
7588;DHT22;3835;48.850;8.938;2023-05-07T06:14:36;16.40;99.90
7588;DHT22;3835;48.850;8.938;2023-05-07T06:17:03;16.50;99.90
7588;DHT22;3835;48.850;8.938;2023-05-07T06:19:30;16.60;99.90
7588;DHT22;3835;48.850;8.938;2023-05-07T06:21:57;16.80;99.90
7588;DHT22;3835;48.850;8.938;2023-05-07T06:24:24;17.10;99.90
7588;DHT22;3835;48.850;8.938;2023-05-07T06:26:51;17.40;99.90
7588;DHT22;3835;48.850;8.938;2023-05-07T06:29:18;17.60;99.90
7588;DHT22;3835;48.850;8.938;2023-05-07T06:31:46;17.60;99.90
7588;DHT22;3835;48.850;8.938;2023-05-07T06:34:13;17.90;99.90
7588;DHT22;3835;48.850;8.938;2023-05-07T06:36:40;18.20;99.90
7588;DHT22;3835;48.850;8.938;2023-05-07T06:39:07;18.10;99.90
7588;DHT22;3835;48.850;8.938;2023-05-07T06:41:34;18.10;99.90
7588;DHT22;3835;48.850;8.938;2023-05-07T06:44:01;18.20;99.90
7588;DHT22;3835;48.850;8.938;2023-05-07T06:46:28;18.30;99.90
7588;DHT22;3835;48.850;8.938;2023-05-07T06:48:56;18.20;99.90
7588;DHT22;3835;48.850;8.938;2023-05-07T06:51:23;18.10;99.90
7588;DHT22;3835;48.850;8.938;2023-05-07T06:53:50;18.40;99.90
7588;DHT22;3835;48.850;8.938;2023-05-07T06:56:17;18.60;99.90
7588;DHT22;3835;48.850;8.938;2023-05-07T06:58:44;18.70;99.90
7588;DHT22;3835;48.850;8.938;2023-05-07T07:01:10;18.60;99.90
7588;DHT22;3835;48.850;8.938;2023-05-07T07:03:37;18.60;99.90
7588;DHT22;3835;48.850;8.938;2023-05-07T07:06:05;18.80;99.90
7588;DHT22;3835;48.850;8.938;2023-05-07T07:08:32;18.80;99.90
7588;DHT22;3835;48.850;8.938;2023-05-07T07:10:59;18.60;99.90
7588;DHT22;3835;48.850;8.938;2023-05-07T07:13:26;19.00;99.90
7588;DHT22;3835;48.850;8.938;2023-05-07T07:15:53;19.00;99.90
7588;DHT22;3835;48.850;8.938;2023-05-07T07:18:20;18.90;99.90
7588;DHT22;3835;48.850;8.938;2023-05-07T07:20:47;19.30;99.90
7588;DHT22;3835;48.850;8.938;2023-05-07T07:23:15;19.70;99.90
7588;DHT22;3835;48.850;8.938;2023-05-07T07:25:41;19.80;99.90
7588;DHT22;3835;48.850;8.938;2023-05-07T07:28:08;19.60;99.90
7588;DHT22;3835;48.850;8.938;2023-05-07T07:30:36;19.60;99.90
7588;DHT22;3835;48.850;8.938;2023-05-07T07:33:03;19.90;99.90
7588;DHT22;3835;48.850;8.938;2023-05-07T07:35:30;19.80;99.90
7588;DHT22;3835;48.850;8.938;2023-05-07T07:37:57;19.60;99.90
7588;DHT22;3835;48.850;8.938;2023-05-07T07:40:25;19.40;99.90
7588;DHT22;3835;48.850;8.938;2023-05-07T07:42:53;19.20;99.90
7588;DHT22;3835;48.850;8.938;2023-05-07T07:45:21;19.00;99.90
7588;DHT22;3835;48.850;8.938;2023-05-07T07:47:47;18.70;99.90
7588;DHT22;3835;48.850;8.938;2023-05-07T07:50:14;18.90;99.90
7588;DHT22;3835;48.850;8.938;2023-05-07T07:52:41;19.00;99.90
7588;DHT22;3835;48.850;8.938;2023-05-07T07:55:08;18.80;99.90
7588;DHT22;3835;48.850;8.938;2023-05-07T07:57:36;18.90;99.90
7588;DHT22;3835;48.850;8.938;2023-05-07T08:00:04;18.80;99.90
7588;DHT22;3835;48.850;8.938;2023-05-07T08:02:32;18.90;99.90
7588;DHT22;3835;48.850;8.938;2023-05-07T08:04:59;19.00;99.90
7588;DHT22;3835;48.850;8.938;2023-05-07T08:07:26;19.00;99.90
7588;DHT22;3835;48.850;8.938;2023-05-07T08:09:53;19.20;99.90
7588;DHT22;3835;48.850;8.938;2023-05-07T08:12:20;19.20;99.90
7588;DHT22;3835;48.850;8.938;2023-05-07T08:14:48;19.30;99.90
7588;DHT22;3835;48.850;8.938;2023-05-07T08:17:15;19.50;99.90
7588;DHT22;3835;48.850;8.938;2023-05-07T08:19:42;19.80;99.90
7588;DHT22;3835;48.850;8.938;2023-05-07T08:22:09;19.70;99.90
7588;DHT22;3835;48.850;8.938;2023-05-07T08:24:36;19.90;99.90
7588;DHT22;3835;48.850;8.938;2023-05-07T08:27:03;20.20;99.90
7588;DHT22;3835;48.850;8.938;2023-05-07T08:29:30;20.40;99.90
7588;DHT22;3835;48.850;8.938;2023-05-07T08:31:58;20.60;99.90
7588;DHT22;3835;48.850;8.938;2023-05-07T08:34:24;20.80;99.90
7588;DHT22;3835;48.850;8.938;2023-05-07T08:36:51;21.00;99.90
7588;DHT22;3835;48.850;8.938;2023-05-07T08:39:18;21.20;99.90
7588;DHT22;3835;48.850;8.938;2023-05-07T08:41:45;21.20;99.90
7588;DHT22;3835;48.850;8.938;2023-05-07T08:44:13;21.30;99.90
7588;DHT22;3835;48.850;8.938;2023-05-07T08:46:41;21.50;99.90
7588;DHT22;3835;48.850;8.938;2023-05-07T08:49:10;21.50;99.90
7588;DHT22;3835;48.850;8.938;2023-05-07T08:51:37;21.60;99.90
7588;DHT22;3835;48.850;8.938;2023-05-07T08:54:04;21.70;99.90
7588;DHT22;3835;48.850;8.938;2023-05-07T08:56:32;21.90;99.90
7588;DHT22;3835;48.850;8.938;2023-05-07T08:58:58;21.80;99.90
7588;DHT22;3835;48.850;8.938;2023-05-07T09:01:26;22.00;99.90
7588;DHT22;3835;48.850;8.938;2023-05-07T09:03:53;22.00;99.90
7588;DHT22;3835;48.850;8.938;2023-05-07T09:06:21;21.70;99.90
7588;DHT22;3835;48.850;8.938;2023-05-07T09:08:51;22.00;99.90
7588;DHT22;3835;48.850;8.938;2023-05-07T09:11:20;22.10;99.90
7588;DHT22;3835;48.850;8.938;2023-05-07T09:13:48;22.00;99.90
7588;DHT22;3835;48.850;8.938;2023-05-07T09:16:15;21.80;99.90
7588;DHT22;3835;48.850;8.938;2023-05-07T09:18:42;21.70;99.90
7588;DHT22;3835;48.850;8.938;2023-05-07T09:21:10;21.80;99.90
7588;DHT22;3835;48.850;8.938;2023-05-07T09:23:38;21.90;99.90
7588;DHT22;3835;48.850;8.938;2023-05-07T09:26:06;22.00;99.90
7588;DHT22;3835;48.850;8.938;2023-05-07T09:28:38;22.00;99.90
7588;DHT22;3835;48.850;8.938;2023-05-07T09:31:06;22.00;99.90
7588;DHT22;3835;48.850;8.938;2023-05-07T09:33:33;21.90;99.90
7588;DHT22;3835;48.850;8.938;2023-05-07T09:36:02;21.80;99.90
7588;DHT22;3835;48.850;8.938;2023-05-07T09:38:30;21.70;99.90
7588;DHT22;3835;48.850;8.938;2023-05-07T09:41:03;21.70;99.90
7588;DHT22;3835;48.850;8.938;2023-05-07T09:43:32;21.90;99.90
7588;DHT22;3835;48.850;8.938;2023-05-07T09:46:02;21.90;99.90
7588;DHT22;3835;48.850;8.938;2023-05-07T09:48:30;22.20;99.90
7588;DHT22;3835;48.850;8.938;2023-05-07T09:50:57;22.20;99.90
7588;DHT22;3835;48.850;8.938;2023-05-07T09:53:29;22.20;99.90
7588;DHT22;3835;48.850;8.938;2023-05-07T09:55:57;22.10;99.90
7588;DHT22;3835;48.850;8.938;2023-05-07T09:58:27;22.10;99.90
7588;DHT22;3835;48.850;8.938;2023-05-07T10:00:55;21.90;99.90
7588;DHT22;3835;48.850;8.938;2023-05-07T10:03:24;21.60;99.90
7588;DHT22;3835;48.850;8.938;2023-05-07T10:05:54;21.60;99.90
7588;DHT22;3835;48.850;8.938;2023-05-07T10:08:21;21.50;99.90
7588;DHT22;3835;48.850;8.938;2023-05-07T10:10:49;21.40;99.90
7588;DHT22;3835;48.850;8.938;2023-05-07T10:13:16;21.20;99.90
7588;DHT22;3835;48.850;8.938;2023-05-07T10:15:45;21.20;99.90
7588;DHT22;3835;48.850;8.938;2023-05-07T10:18:12;21.20;99.90
7588;DHT22;3835;48.850;8.938;2023-05-07T10:20:41;21.20;99.90
7588;DHT22;3835;48.850;8.938;2023-05-07T10:23:13;21.20;99.90
7588;DHT22;3835;48.850;8.938;2023-05-07T10:25:41;21.30;99.90
7588;DHT22;3835;48.850;8.938;2023-05-07T10:28:10;21.30;99.90
7588;DHT22;3835;48.850;8.938;2023-05-07T10:30:48;21.40;99.90
7588;DHT22;3835;48.850;8.938;2023-05-07T10:33:22;21.40;99.90
7588;DHT22;3835;48.850;8.938;2023-05-07T10:35:55;21.40;99.90
7588;DHT22;3835;48.850;8.938;2023-05-07T10:38:22;21.40;99.90
7588;DHT22;3835;48.850;8.938;2023-05-07T10:40:51;21.40;99.90
7588;DHT22;3835;48.850;8.938;2023-05-07T10:43:18;21.50;99.90
7588;DHT22;3835;48.850;8.938;2023-05-07T10:46:09;21.30;99.90
7588;DHT22;3835;48.850;8.938;2023-05-07T10:49:09;21.20;99.90
7588;DHT22;3835;48.850;8.938;2023-05-07T10:51:37;21.10;99.90
7588;DHT22;3835;48.850;8.938;2023-05-07T10:54:22;20.90;99.90
7588;DHT22;3835;48.850;8.938;2023-05-07T10:56:52;20.70;99.90
7588;DHT22;3835;48.850;8.938;2023-05-07T10:59:44;20.60;99.90
7588;DHT22;3835;48.850;8.938;2023-05-07T11:02:11;20.60;99.90
7588;DHT22;3835;48.850;8.938;2023-05-07T11:04:41;20.50;99.90
7588;DHT22;3835;48.850;8.938;2023-05-07T11:07:29;20.60;99.90
7588;DHT22;3835;48.850;8.938;2023-05-07T11:10:05;20.70;99.90
7588;DHT22;3835;48.850;8.938;2023-05-07T11:12:52;20.70;99.90
7588;DHT22;3835;48.850;8.938;2023-05-07T11:15:50;20.70;99.90
7588;DHT22;3835;48.850;8.938;2023-05-07T11:18:17;20.70;99.90
7588;DHT22;3835;48.850;8.938;2023-05-07T11:20:54;20.70;99.90
7588;DHT22;3835;48.850;8.938;2023-05-07T11:26:46;20.50;99.90
7588;DHT22;3835;48.850;8.938;2023-05-07T11:29:14;20.70;99.90
7588;DHT22;3835;48.850;8.938;2023-05-07T11:31:42;20.80;99.90
7588;DHT22;3835;48.850;8.938;2023-05-07T11:34:09;20.80;99.90
7588;DHT22;3835;48.850;8.938;2023-05-07T11:36:42;20.90;99.90
7588;DHT22;3835;48.850;8.938;2023-05-07T11:39:30;21.10;99.90
7588;DHT22;3835;48.850;8.938;2023-05-07T11:41:59;21.10;99.90
7588;DHT22;3835;48.850;8.938;2023-05-07T11:44:42;21.10;99.90
7588;DHT22;3835;48.850;8.938;2023-05-07T11:47:10;21.30;99.90
7588;DHT22;3835;48.850;8.938;2023-05-07T11:49:37;21.40;99.90
7588;DHT22;3835;48.850;8.938;2023-05-07T11:52:05;21.50;99.90
7588;DHT22;3835;48.850;8.938;2023-05-07T11:54:35;21.50;99.90
7588;DHT22;3835;48.850;8.938;2023-05-07T11:57:02;21.60;99.90
7588;DHT22;3835;48.850;8.938;2023-05-07T11:59:29;22.00;99.90
7588;DHT22;3835;48.850;8.938;2023-05-07T12:01:57;22.10;99.90
7588;DHT22;3835;48.850;8.938;2023-05-07T12:04:24;22.20;99.90
7588;DHT22;3835;48.850;8.938;2023-05-07T12:06:53;22.30;99.90
7588;DHT22;3835;48.850;8.938;2023-05-07T12:09:22;22.10;99.90
7588;DHT22;3835;48.850;8.938;2023-05-07T12:11:49;22.20;99.90
7588;DHT22;3835;48.850;8.938;2023-05-07T12:14:17;22.30;99.90
7588;DHT22;3835;48.850;8.938;2023-05-07T12:16:44;22.50;99.90
7588;DHT22;3835;48.850;8.938;2023-05-07T12:19:11;22.60;99.90
7588;DHT22;3835;48.850;8.938;2023-05-07T12:21:38;22.70;99.90
7588;DHT22;3835;48.850;8.938;2023-05-07T12:24:06;22.60;99.90
7588;DHT22;3835;48.850;8.938;2023-05-07T12:26:37;22.30;99.90
7588;DHT22;3835;48.850;8.938;2023-05-07T12:29:04;22.50;99.90
7588;DHT22;3835;48.850;8.938;2023-05-07T12:31:31;22.40;99.90
7588;DHT22;3835;48.850;8.938;2023-05-07T12:33:58;21.90;99.90
7588;DHT22;3835;48.850;8.938;2023-05-07T12:36:25;21.30;99.90
7588;DHT22;3835;48.850;8.938;2023-05-07T12:38:52;20.90;99.90
7588;DHT22;3835;48.850;8.938;2023-05-07T12:41:21;20.70;99.90
7588;DHT22;3835;48.850;8.938;2023-05-07T12:43:56;20.60;99.90
7588;DHT22;3835;48.850;8.938;2023-05-07T12:46:23;20.60;99.90
7588;DHT22;3835;48.850;8.938;2023-05-07T12:48:50;20.60;99.90
7588;DHT22;3835;48.850;8.938;2023-05-07T12:51:16;20.70;99.90
7588;DHT22;3835;48.850;8.938;2023-05-07T12:53:45;20.70;99.90
7588;DHT22;3835;48.850;8.938;2023-05-07T12:56:11;20.70;99.90
7588;DHT22;3835;48.850;8.938;2023-05-07T12:58:41;20.40;99.90
7588;DHT22;3835;48.850;8.938;2023-05-07T13:01:09;20.10;99.90
7588;DHT22;3835;48.850;8.938;2023-05-07T13:03:40;20.00;99.90
7588;DHT22;3835;48.850;8.938;2023-05-07T13:06:09;19.90;99.90
7588;DHT22;3835;48.850;8.938;2023-05-07T13:08:38;19.70;99.90
7588;DHT22;3835;48.850;8.938;2023-05-07T13:11:07;19.50;99.90
7588;DHT22;3835;48.850;8.938;2023-05-07T13:13:35;19.40;99.90
7588;DHT22;3835;48.850;8.938;2023-05-07T13:16:03;19.50;99.90
7588;DHT22;3835;48.850;8.938;2023-05-07T13:18:32;19.20;99.90
7588;DHT22;3835;48.850;8.938;2023-05-07T13:21:00;19.00;99.90
7588;DHT22;3835;48.850;8.938;2023-05-07T13:23:27;18.80;99.90
7588;DHT22;3835;48.850;8.938;2023-05-07T13:25:54;18.70;99.90
7588;DHT22;3835;48.850;8.938;2023-05-07T13:28:21;18.60;99.90
7588;DHT22;3835;48.850;8.938;2023-05-07T13:30:48;18.30;99.90
7588;DHT22;3835;48.850;8.938;2023-05-07T13:33:17;18.20;99.90
7588;DHT22;3835;48.850;8.938;2023-05-07T13:35:45;18.10;99.90
7588;DHT22;3835;48.850;8.938;2023-05-07T13:38:12;17.90;99.90
7588;DHT22;3835;48.850;8.938;2023-05-07T13:40:41;17.80;99.90
7588;DHT22;3835;48.850;8.938;2023-05-07T13:43:08;17.80;99.90
7588;DHT22;3835;48.850;8.938;2023-05-07T13:45:34;17.60;99.90
7588;DHT22;3835;48.850;8.938;2023-05-07T13:48:01;17.70;99.90
7588;DHT22;3835;48.850;8.938;2023-05-07T13:50:28;17.50;99.90
7588;DHT22;3835;48.850;8.938;2023-05-07T13:52:56;17.50;99.90
7588;DHT22;3835;48.850;8.938;2023-05-07T13:55:24;17.40;99.90
7588;DHT22;3835;48.850;8.938;2023-05-07T13:57:55;17.20;99.90
7588;DHT22;3835;48.850;8.938;2023-05-07T14:00:23;17.20;99.90
7588;DHT22;3835;48.850;8.938;2023-05-07T14:02:50;17.10;99.90
7588;DHT22;3835;48.850;8.938;2023-05-07T14:05:16;17.10;99.90
7588;DHT22;3835;48.850;8.938;2023-05-07T14:07:43;16.90;99.90
7588;DHT22;3835;48.850;8.938;2023-05-07T14:10:12;16.90;99.90
7588;DHT22;3835;48.850;8.938;2023-05-07T14:12:39;16.80;99.90
7588;DHT22;3835;48.850;8.938;2023-05-07T14:15:06;16.80;99.90
7588;DHT22;3835;48.850;8.938;2023-05-07T14:17:33;16.60;99.90
7588;DHT22;3835;48.850;8.938;2023-05-07T14:20:00;16.60;99.90
7588;DHT22;3835;48.850;8.938;2023-05-07T14:22:27;16.50;99.90
7588;DHT22;3835;48.850;8.938;2023-05-07T14:24:54;16.50;99.90
7588;DHT22;3835;48.850;8.938;2023-05-07T14:27:22;16.40;99.90
7588;DHT22;3835;48.850;8.938;2023-05-07T14:29:49;16.20;99.90
7588;DHT22;3835;48.850;8.938;2023-05-07T14:32:16;16.20;99.90
7588;DHT22;3835;48.850;8.938;2023-05-07T14:34:44;16.10;99.90
7588;DHT22;3835;48.850;8.938;2023-05-07T14:37:11;16.10;99.90
7588;DHT22;3835;48.850;8.938;2023-05-07T14:39:38;16.00;99.90
7588;DHT22;3835;48.850;8.938;2023-05-07T14:42:05;16.10;99.90
7588;DHT22;3835;48.850;8.938;2023-05-07T14:44:34;16.10;99.90
7588;DHT22;3835;48.850;8.938;2023-05-07T14:47:01;16.10;99.90
7588;DHT22;3835;48.850;8.938;2023-05-07T14:49:28;16.10;99.90
7588;DHT22;3835;48.850;8.938;2023-05-07T14:51:57;16.20;99.90
7588;DHT22;3835;48.850;8.938;2023-05-07T14:54:25;16.20;99.90
7588;DHT22;3835;48.850;8.938;2023-05-07T14:56:52;16.20;99.90
7588;DHT22;3835;48.850;8.938;2023-05-07T14:59:19;16.30;99.90
7588;DHT22;3835;48.850;8.938;2023-05-07T15:01:48;16.30;99.90
7588;DHT22;3835;48.850;8.938;2023-05-07T15:04:15;16.30;99.90
7588;DHT22;3835;48.850;8.938;2023-05-07T15:06:42;16.40;99.90
7588;DHT22;3835;48.850;8.938;2023-05-07T15:09:08;16.30;99.90
7588;DHT22;3835;48.850;8.938;2023-05-07T15:11:35;16.40;99.90
7588;DHT22;3835;48.850;8.938;2023-05-07T15:14:02;16.50;99.90
7588;DHT22;3835;48.850;8.938;2023-05-07T15:16:29;16.60;99.90
7588;DHT22;3835;48.850;8.938;2023-05-07T15:18:57;16.80;99.90
7588;DHT22;3835;48.850;8.938;2023-05-07T15:21:24;17.10;99.90
7588;DHT22;3835;48.850;8.938;2023-05-07T15:23:52;17.30;99.90
7588;DHT22;3835;48.850;8.938;2023-05-07T15:26:18;17.40;99.90
7588;DHT22;3835;48.850;8.938;2023-05-07T15:28:45;17.50;99.90
7588;DHT22;3835;48.850;8.938;2023-05-07T15:31:12;17.40;99.90
7588;DHT22;3835;48.850;8.938;2023-05-07T15:33:39;17.20;99.90
7588;DHT22;3835;48.850;8.938;2023-05-07T15:36:08;17.10;99.90
7588;DHT22;3835;48.850;8.938;2023-05-07T15:38:35;17.10;99.90
7588;DHT22;3835;48.850;8.938;2023-05-07T15:41:02;17.20;99.90
7588;DHT22;3835;48.850;8.938;2023-05-07T15:43:29;17.20;99.90
7588;DHT22;3835;48.850;8.938;2023-05-07T15:45:56;17.20;99.90
7588;DHT22;3835;48.850;8.938;2023-05-07T15:48:23;17.30;99.90
7588;DHT22;3835;48.850;8.938;2023-05-07T15:50:49;17.20;99.90
7588;DHT22;3835;48.850;8.938;2023-05-07T15:53:17;17.10;99.90
7588;DHT22;3835;48.850;8.938;2023-05-07T15:55:44;16.70;99.90
7588;DHT22;3835;48.850;8.938;2023-05-07T15:58:12;16.80;99.90
7588;DHT22;3835;48.850;8.938;2023-05-07T16:00:39;16.80;99.90
7588;DHT22;3835;48.850;8.938;2023-05-07T16:03:06;16.90;99.90
7588;DHT22;3835;48.850;8.938;2023-05-07T16:05:34;17.00;99.90
7588;DHT22;3835;48.850;8.938;2023-05-07T16:08:00;17.10;99.90
7588;DHT22;3835;48.850;8.938;2023-05-07T16:10:30;17.10;99.90